Flight Track Log - Related Links

Times and Time Zones

All times are in EDT time to prevent confusion due to time zone crossing. See the ACA75 flight status page for this flight to view local times or setup timezone preferences in your user account.

Time Position Orientation Groundspeed Altitude Reporting Facility
EDT Latitude Longitude Course Direction KTS MPH feet Rate Location/Type
Sun 07:45:00 AM 10.9196 -67.1230 338° Northwest  Level FlightAware Approximate
Sun 07:46:00 AM 11.0251 -67.1672 338° Northwest  Level FlightAware Approximate
Sun 07:47:00 AM 11.1306 -67.2114 338° Northwest  Level FlightAware Approximate
Sun 07:48:00 AM 11.2360 -67.2557 338° Northwest  Level FlightAware Approximate
Sun 07:48:32 AM 11.0701 -67.1374 341° North 360 414 12,400  Level FlightAware ADS-B
Sun 07:49:00 AM 11.3415 -67.2999 338° Northwest  Level FlightAware Approximate
Sun 07:49:10 AM 11.1330 -67.1590 341° North 376 433 13,500  Level FlightAware ADS-B
Sun 07:49:52 AM 11.2022 -67.1826 341° North 378 435 15,100 2,222 Climbing FlightAware ADS-B
Sun 07:50:31 AM 11.2665 -67.2047 341° North 379 436 16,500 1,975 Climbing FlightAware ADS-B
Sun 07:51:11 AM 11.3352 -67.2282 341° North 386 444 17,700 1,829 Climbing FlightAware ADS-B
Sun 07:51:53 AM 11.4076 -67.2513 342° North 393 452 19,000 1,756 Climbing FlightAware ADS-B
Sun 07:52:33 AM 11.4791 -67.2740 342° North 399 459 20,100 1,630 Climbing FlightAware ADS-B
Sun 07:53:14 AM 11.5498 -67.2966 342° North 402 463 21,200 1,443 Climbing FlightAware ADS-B
Sun 07:53:52 AM 11.6196 -67.3190 342° North 410 472 22,000 1,308 Climbing FlightAware ADS-B
Sun 07:54:32 AM 11.6941 -67.3429 342° North 416 479 22,900 1,481 Climbing FlightAware ADS-B
Sun 07:55:13 AM 11.7681 -67.3666 342° North 415 478 24,000 1,704 Climbing FlightAware ADS-B
Sun 07:55:53 AM 11.8400 -67.3897 342° North 408 470 25,200 1,200 Climbing FlightAware ADS-B
Sun 07:56:33 AM 11.9139 -67.4136 342° North 420 483 25,600 675 Climbing FlightAware ADS-B
Sun 07:57:13 AM 11.9907 -67.4383 342° North 429 494 26,100 741 Climbing FlightAware ADS-B
Sun 07:57:54 AM 12.0675 -67.4630 342° North 438 504 26,600 741 Climbing FlightAware ADS-B
Sun 07:58:34 AM 12.1454 -67.4891 341° North 445 512 27,100 1,063 Climbing FlightAware ADS-B
Sun 07:59:13 AM 12.2225 -67.5148 341° North 440 506 28,000 1,013 Climbing FlightAware ADS-B
Sun 07:59:51 AM 12.2976 -67.5398 341° North 449 517 28,400 975 Climbing FlightAware ADS-B
Sun 08:00:33 AM 12.3820 -67.5680 341° North 445 512 29,300 1,229 Climbing FlightAware ADS-B
Sun 08:01:14 AM 12.4602 -67.5941 341° North 442 509 30,100 1,259 Climbing FlightAware ADS-B
Sun 08:01:54 AM 12.5378 -67.6199 341° North 438 504 31,000 1,231 Climbing FlightAware ADS-B
Sun 08:02:32 AM 12.6142 -67.6453 341° North 436 502 31,700 1,139 Climbing FlightAware ADS-B
Sun 08:03:13 AM 12.6899 -67.6706 341° North 435 501 32,500 1,111 Climbing FlightAware ADS-B
Sun 08:03:53 AM 12.7673 -67.6963 341° North 433 498 33,200 1,050 Climbing FlightAware ADS-B
Sun 08:04:33 AM 12.8438 -67.7224 341° North 433 498 33,900 1,000 Climbing FlightAware ADS-B
Sun 08:05:11 AM 12.9190 -67.7481 341° North 433 498 34,500 889 Climbing FlightAware ADS-B
Sun 08:05:54 AM 12.9987 -67.7753 341° North 434 499 35,100 867 Climbing FlightAware ADS-B
Sun 08:06:34 AM 13.0741 -67.8011 341° North 434 499 35,700 692 Climbing FlightAware ADS-B
Sun 08:07:12 AM 13.1474 -67.8262 341° North 434 499 36,000 228 Climbing FlightAware ADS-B
Sun 08:07:53 AM 13.2255 -67.8533 341° North 433 498 36,000  Level FlightAware ADS-B
Sun 08:08:33 AM 13.3017 -67.8797 341° North 433 498 36,000  Level FlightAware ADS-B
Sun 08:09:13 AM 13.3780 -67.9060 341° North 434 499 36,000  Level FlightAware ADS-B
Sun 08:09:53 AM 13.4569 -67.9331 341° North 435 501 36,000  Level FlightAware ADS-B
Sun 08:10:36 AM 13.5375 -67.9608 341° North 435 501 36,000  Level FlightAware ADS-B
Sun 08:11:14 AM 13.6102 -67.9858 341° North 436 502 36,000  Level FlightAware ADS-B
Sun 08:11:54 AM 13.6863 -68.0121 341° North 436 502 36,000  Level FlightAware ADS-B
Sun 08:12:34 AM 13.7654 -68.0393 341° North 435 501 36,000  Level FlightAware ADS-B
Sun 08:13:13 AM 13.8351 -68.0633 341° North 433 498 36,000  Level FlightAware ADS-B
Sun 08:13:53 AM 13.9138 -68.0909 341° North 431 496 36,000 150 Level FlightAware ADS-B
Sun 08:14:33 AM 13.9898 -68.1169 341° North 431 496 36,200 444 Climbing FlightAware ADS-B
Sun 08:15:14 AM 14.0683 -68.1440 341° North 434 499 36,600 593 Climbing FlightAware ADS-B
Sun 08:15:54 AM 14.1443 -68.1702 341° North 434 499 37,000 600 Climbing FlightAware ADS-B
Sun 08:16:34 AM 14.2258 -68.1942 347° North 442 509 37,400 525 Climbing FlightAware ADS-B
Sun 08:17:14 AM 14.3061 -68.2107 348° North 442 509 37,700 456 Climbing FlightAware ADS-B
Sun 08:17:53 AM 14.3817 -68.2265 348° North 444 511 38,000 228 Climbing FlightAware ADS-B
Sun 08:18:33 AM 14.4633 -68.2437 348° North 452 520 38,000  Level FlightAware ADS-B
Sun 08:19:13 AM 14.5452 -68.2607 348° North 454 522 38,000  Level FlightAware ADS-B
Sun 08:19:55 AM 14.6353 -68.2795 348° North 452 520 38,000  Level FlightAware ADS-B
Sun 08:20:34 AM 14.7133 -68.2959 348° North 452 520 38,000  Level FlightAware ADS-B
Sun 08:21:14 AM 14.7921 -68.3124 348° North 450 518 38,000  Level FlightAware ADS-B
Sun 08:21:54 AM 14.8774 -68.3300 348° North 449 517 38,000  Level FlightAware ADS-B
Sun 08:22:34 AM 14.9610 -68.3476 348° North 449 517 38,000  Level FlightAware ADS-B
Sun 08:23:13 AM 15.0362 -68.3634 348° North 448 516 38,000  Level FlightAware ADS-B
Sun 08:23:53 AM 15.1196 -68.3809 348° North 447 514 38,000  Level FlightAware ADS-B
Sun 08:24:35 AM 15.2060 -68.3990 348° North 445 512 38,000  Level FlightAware ADS-B
Sun 08:25:13 AM 15.2825 -68.4151 348° North 444 511 38,000  Level FlightAware ADS-B
Sun 08:25:54 AM 15.3653 -68.4325 348° North 443 510 38,000  Level FlightAware ADS-B
Sun 08:26:34 AM 15.4444 -68.4491 348° North 443 510 38,000  Level FlightAware ADS-B
Sun 08:27:14 AM 15.5254 -68.4662 348° North 443 510 38,000  Level FlightAware ADS-B
Sun 08:27:52 AM 15.6039 -68.4828 348° North 445 512 38,000  Level FlightAware ADS-B
Sun 08:28:34 AM 15.6900 -68.5010 348° North 445 512 38,000  Level FlightAware ADS-B
Sun 08:29:15 AM 15.7705 -68.5179 348° North 443 510 38,000  Level FlightAware ADS-B
Sun 08:29:55 AM 15.8514 -68.5350 348° North 440 506 38,000  Level FlightAware ADS-B
Sun 08:30:48 AM 15.9548 -68.5570 347° North 435 501 38,000  Level FlightAware ADS-B
Sun 08:34:55 AM 16.3958 -68.7605 334° Northwest 417 480 38,000  Level FlightAware ADS-B
Sun 08:58:41 AM 18.8961 -70.0125 335° Northwest 421 484 38,000  Level FlightAware ADS-B (MTPP / PAP)
Sun 08:59:12 AM 18.9528 -70.0414 334° Northwest 421 484 38,000  Level FlightAware ADS-B (MTPP / PAP)
Sun 08:59:45 AM 19.0101 -70.0706 335° Northwest 422 486 38,000  Level FlightAware ADS-B (MTPP / PAP)
Sun 09:00:13 AM 19.0614 -70.0968 335° Northwest 423 487 38,000  Level FlightAware ADS-B (MTPP / PAP)
Sun 09:00:43 AM 19.1150 -70.1241 335° Northwest 423 487 38,000  Level FlightAware ADS-B (MTPP / PAP)
Sun 09:01:09 AM 19.1602 -70.1473 334° Northwest 423 487 38,000  Level FlightAware ADS-B (MTPP / PAP)
Sun 09:01:44 AM 19.2209 -70.1782 335° Northwest 422 486 38,000  Level FlightAware ADS-B (MTPP / PAP)
Sun 09:02:07 AM 19.2419 -70.1890 335° Northwest 422 486 38,000  Level FlightAware ADS-B (MTPP / PAP)
Sun 09:02:41 AM 19.3227 -70.2303 334° Northwest 421 484 38,000  Level FlightAware ADS-B (MTPP / PAP)
Sun 09:03:09 AM 19.3703 -70.2546 335° Northwest 421 484 38,000  Level FlightAware ADS-B (MTPP / PAP)
Sun 09:03:42 AM 19.4240 -70.2821 335° Northwest 422 486 38,000  Level FlightAware ADS-B (MTPP / PAP)
Sun 09:04:39 AM 19.5277 -70.3352 334° Northwest 423 487 38,000  Level FlightAware ADS-B (MTPP / PAP)
Sun 09:05:14 AM 19.5888 -70.3666 334° Northwest 423 487 38,000  Level FlightAware ADS-B (MTPP / PAP)
Sun 09:05:41 AM 19.6367 -70.3913 334° Northwest 423 487 38,000  Level FlightAware ADS-B (MTPP / PAP)
Sun 09:06:10 AM 19.6896 -70.4186 334° Northwest 423 487 38,000  Level FlightAware ADS-B (MTPP / PAP)
Sun 09:06:39 AM 19.7409 -70.4449 334° Northwest 421 484 38,000  Level FlightAware ADS-B (MTPP / PAP)
Sun 09:07:08 AM 19.7887 -70.4695 334° Northwest 421 484 38,000  Level FlightAware ADS-B (MTPP / PAP)
Sun 09:07:45 AM 19.8435 -70.4977 334° Northwest 420 483 38,000  Level FlightAware ADS-B (MTPP / PAP)
Sun 09:08:06 AM 19.8787 -70.5158 334° Northwest 421 484 38,000  Level FlightAware ADS-B (MTPP / PAP)
Sun 09:08:33 AM 19.9376 -70.5461 334° Northwest 421 484 38,000  Level FlightAware ADS-B (MTPP / PAP)
Sun 09:09:07 AM 19.9989 -70.5779 334° Northwest 421 484 38,000  Level FlightAware ADS-B (MTPP / PAP)
Sun 09:09:57 AM 20.0864 -70.6229 334° Northwest 420 483 38,000  Level FlightAware ADS-B (MTPP / PAP)
Sun 09:10:35 AM 20.1491 -70.6553 334° Northwest 419 482 38,000  Level FlightAware ADS-B (MTPP / PAP)
Sun 09:10:56 AM 20.1882 -70.6757 334° Northwest 419 482 38,000  Level FlightAware ADS-B (MTPP / PAP)
Sun 09:11:39 AM 20.2627 -70.7143 334° Northwest 418 481 38,000  Level FlightAware ADS-B (MTPP / PAP)
Sun 09:12:20 AM 20.3340 -70.7513 334° Northwest 417 480 38,000  Level FlightAware ADS-B (MTPP / PAP)
Sun 09:12:49 AM 20.3866 -70.7788 333° Northwest 415 478 38,000  Level FlightAware ADS-B (MTPP / PAP)
Sun 09:13:24 AM 20.4429 -70.8155 325° Northwest 404 465 38,000  Level FlightAware ADS-B (MTPP / PAP)
Sun 09:13:59 AM 20.4932 -70.8566 323° Northwest 399 459 38,000  Level FlightAware ADS-B (MTPP / PAP)
Sun 09:14:22 AM 20.5256 -70.8831 323° Northwest 397 457 38,000  Level FlightAware ADS-B (MTPP / PAP)
Sun 09:14:58 AM 20.5788 -70.9267 323° Northwest 395 455 38,000  Level FlightAware ADS-B (MTPP / PAP)
Sun 09:15:34 AM 20.6294 -70.9685 322° Northwest 393 452 38,000  Level FlightAware ADS-B (MTPP / PAP)
Sun 09:15:54 AM 20.6580 -70.9922 322° Northwest 394 453 38,000  Level FlightAware ADS-B (MTPP / PAP)
Sun 09:16:26 AM 20.7054 -71.0315 323° Northwest 394 453 38,000  Level FlightAware ADS-B (MTPP / PAP)
Sun 09:16:44 AM 20.7327 -71.0539 323° Northwest 395 455 38,000  Level FlightAware ADS-B (MTPP / PAP)
Sun 09:17:18 AM 20.7593 -71.0759 323° Northwest 396 456 38,000  Level FlightAware ADS-B (MTPP / PAP)
Sun 09:18:25 AM 20.8774 -71.1735 323° Northwest 395 455 38,000  Level FlightAware ADS-B (MTPP / PAP)
Sun 09:18:42 AM 20.8882 -71.1825 323° Northwest 395 455 38,000  Level FlightAware ADS-B (MTPP / PAP)
Sun 09:19:42 AM 20.9891 -71.2663 323° Northwest 395 455 38,000  Level FlightAware ADS-B (MTPP / PAP)
Sun 09:20:22 AM 21.0458 -71.3135 323° Northwest 396 456 38,000  Level FlightAware ADS-B (MTPP / PAP)
Sun 09:20:47 AM 21.0808 -71.3425 323° Northwest 396 456 38,000  Level FlightAware ADS-B (MTPP / PAP)
Sun 09:21:00 AM 21.0933 -71.3529 323° Northwest 396 456 38,000  Level FlightAware ADS-B (MTPP / PAP)
Sun 09:21:44 AM 21.1569 -71.4103 323° Northwest 389 448 38,000  Level Miami Center
Sun 09:22:44 AM 21.2450 -71.4847 322° Northwest 389 448 38,000  Level Miami Center
Sun 09:23:44 AM 21.3331 -71.5589 322° Northwest 389 448 38,000  Level Miami Center
Sun 09:24:56 AM 21.4039 -71.6186 322° Northwest 389 448 38,000  Level Miami Center
Sun 09:25:56 AM 21.5156 -71.7078 323° Northwest 389 448 38,000  Level Miami Center
Sun 09:26:56 AM 21.6036 -71.7825 322° Northwest 389 448 38,000  Level Miami Center
Sun 09:27:57 AM 21.6872 -71.8531 322° Northwest 389 448 38,000  Level Miami Center
Sun 09:28:56 AM 21.7731 -71.9258 322° Northwest 384 442 38,000  Level Miami Center
Sun 09:29:56 AM 21.8586 -71.9964 323° Northwest 384 442 38,000  Level Miami Center
Sun 09:30:56 AM 21.9467 -72.0692 323° Northwest 384 442 38,000  Level Miami Center
Sun 09:31:56 AM 22.0303 -72.1400 322° Northwest 384 442 38,000  Level Miami Center
Sun 09:32:56 AM 22.1139 -72.2131 321° Northwest 384 442 38,000  Level Miami Center
Sun 09:33:56 AM 22.1953 -72.2842 321° Northwest 384 442 38,000  Level Miami Center
Sun 09:34:56 AM 22.2808 -72.3531 323° Northwest 384 442 38,000  Level Miami Center
Sun 09:35:56 AM 22.3622 -72.4244 321° Northwest 384 442 38,000  Level Miami Center
Sun 09:36:56 AM 22.4458 -72.4933 323° Northwest 384 442 38,000  Level Miami Center
Sun 09:37:56 AM 22.5292 -72.5669 321° Northwest 384 442 38,000  Level Miami Center
Sun 09:38:56 AM 22.6128 -72.6383 322° Northwest 384 442 38,000  Level Miami Center
Sun 09:39:56 AM 22.7003 -72.7100 323° Northwest 384 442 38,000  Level Miami Center
Sun 09:40:56 AM 22.7836 -72.7814 322° Northwest 384 442 38,000  Level Miami Center
Sun 09:41:56 AM 22.8672 -72.8556 321° Northwest 384 442 38,000  Level Miami Center
Sun 09:42:56 AM 22.9547 -72.9272 323° Northwest 384 442 38,000  Level Miami Center
Sun 09:43:56 AM 23.0486 -73.0078 322° Northwest 390 449 38,000  Level Miami Center
Sun 09:44:56 AM 23.1319 -73.0797 322° Northwest 383 441 38,000  Level Miami Center
Sun 09:45:56 AM 23.2131 -73.1542 320° Northwest 389 448 38,000  Level Miami Center
Sun 09:46:56 AM 23.3047 -73.2261 324° Northwest 388 447 38,000  Level Miami Center
Sun 09:47:56 AM 23.3836 -73.3008 319° Northwest 388 447 38,000  Level Miami Center
Sun 09:48:56 AM 23.4772 -73.3753 324° Northwest 388 447 38,000  Level Miami Center
Sun 09:49:56 AM 23.5564 -73.4503 319° Northwest 383 441 38,000  Level Miami Center
Sun 09:50:56 AM 23.6394 -73.5228 321° Northwest 388 447 38,000  Level Miami Center
Sun 09:51:56 AM 23.7247 -73.5978 321° Northwest 388 447 38,000  Level Miami Center
Sun 09:52:56 AM 23.8097 -73.6703 322° Northwest 383 441 38,000  Level Miami Center
Sun 09:53:56 AM 23.8950 -73.7456 321° Northwest 388 447 38,000  Level Miami Center
Sun 09:54:56 AM 23.9842 -73.8206 322° Northwest 388 447 38,000  Level Miami Center
Sun 09:55:56 AM 24.0672 -73.8936 321° Northwest 388 447 38,000  Level Miami Center
Sun 09:56:56 AM 24.1544 -73.9689 322° Northwest 388 447 38,000  Level Miami Center
Sun 09:57:56 AM 24.2353 -74.0444 320° Northwest 382 440 38,000  Level Miami Center
Sun 09:58:56 AM 24.3222 -74.1178 322° Northwest 382 440 38,000  Level Miami Center
Sun 09:59:56 AM 24.4050 -74.1936 320° Northwest 382 440 38,000  Level Miami Center
Sun 10:00:56 AM 24.4878 -74.2650 322° Northwest 382 440 38,000  Level Miami Center
Sun 10:01:56 AM 24.5664 -74.3386 320° Northwest 382 440 38,000  Level Miami Center
Sun 10:02:56 AM 24.6492 -74.4100 322° Northwest 377 434 38,000  Level Miami Center
Sun 10:03:56 AM 24.7319 -74.4839 321° Northwest 382 440 38,000  Level Miami Center
Sun 10:04:56 AM 24.8144 -74.5603 320° Northwest 382 440 38,000  Level Miami Center
Sun 10:05:57 AM 24.8992 -74.6342 322° Northwest 387 445 38,000  Level Miami Center
Sun 10:06:56 AM 24.9797 -74.7083 320° Northwest 387 445 38,000  Level Miami Center
Sun 10:07:56 AM 25.0644 -74.7847 321° Northwest 387 445 38,000  Level Miami Center
Sun 10:08:56 AM 25.1450 -74.8569 321° Northwest 380 437 38,000  Level Miami Center
Sun 10:09:56 AM 25.2275 -74.9336 320° Northwest 385 443 38,000  Level Miami Center
Sun 10:10:56 AM 25.3097 -75.0083 321° Northwest 385 443 38,000  Level Miami Center
Sun 10:11:56 AM 25.3881 -75.0761 322° Northwest 380 437 38,000  Level Miami Center
Sun 10:12:56 AM 25.4725 -75.1531 321° Northwest 380 437 38,000  Level Miami Center
Sun 10:13:56 AM 25.5528 -75.2325 318° Northwest 386 444 38,000  Level Miami Center
Sun 10:14:56 AM 25.6372 -75.3028 323° Northwest 386 444 38,000  Level Miami Center
Sun 10:15:56 AM 25.7194 -75.3803 320° Northwest 386 444 38,000  Level Miami Center
Sun 10:16:56 AM 25.8058 -75.4531 323° Northwest 380 437 38,000  Level Miami Center
Sun 10:17:56 AM 25.8881 -75.5283 321° Northwest 387 445 38,000  Level Miami Center
Sun 10:18:56 AM 25.9681 -75.6036 320° Northwest 379 436 38,000  Level Miami Center
Sun 10:19:56 AM 26.0567 -75.6836 321° Northwest 393 452 38,000  Level Miami Center
Sun 10:20:56 AM 26.1344 -75.7547 321° Northwest 384 442 38,000 150 Level Miami Center
Sun 10:21:56 AM 26.2208 -75.8347 320° Northwest 390 449 38,300 500 Climbing Miami Center
Sun 10:22:56 AM 26.2964 -75.9036 321° Northwest 383 441 39,000 350 Climbing Miami Center
Sun 10:23:56 AM 26.3764 -75.9797 320° Northwest 382 440 39,000  Level Miami Center
Sun 10:24:56 AM 26.4581 -76.0556 320° Northwest 382 440 39,000  Level Miami Center
Sun 10:25:56 AM 26.5381 -76.1317 320° Northwest 382 440 39,000  Level Miami Center
Sun 10:26:56 AM 26.6094 -76.1964 321° Northwest 377 434 39,000  Level Miami Center
Sun 10:27:56 AM 26.6911 -76.2703 321° Northwest 382 440 39,000  Level Miami Center
Sun 10:28:56 AM 26.7708 -76.3489 319° Northwest 377 434 39,000  Level Miami Center
Sun 10:29:57 AM 26.8506 -76.4208 321° Northwest 383 441 39,000  Level Miami Center
Sun 10:30:57 AM 26.9281 -76.4975 319° Northwest 383 441 39,000  Level Miami Center
Sun 10:31:56 AM 27.0056 -76.5672 321° Northwest 376 433 39,000  Level Miami Center
Sun 10:32:56 AM 27.0850 -76.6392 321° Northwest 377 434 39,000  Level Miami Center
Sun 10:33:56 AM 27.1686 -76.7208 319° Northwest 382 440 39,000  Level Miami Center
Sun 10:34:56 AM 27.2522 -76.8025 319° Northwest 390 449 39,000  Level Miami Center
Sun 10:35:56 AM 27.3294 -76.8681 323° Northwest 383 441 39,000  Level Miami Center
Sun 10:36:56 AM 27.4278 -76.9242 333° Northwest 375 432 39,000  Level Miami Center
Sun 10:37:56 AM 27.5508 -76.9500 349° North 402 463 39,000  Level Miami Center
Sun 10:38:56 AM 27.6658 -76.9525 359° North 409 471 39,000  Level Miami Center
Sun 10:39:56 AM 27.7828 -76.9736 351° North 415 478 39,000  Level Miami Center
Sun 10:40:56 AM 27.8975 -76.9808 357° North 415 478 39,000  Level Miami Center
Sun 10:41:56 AM 28.0164 -77.0139 346° North 415 478 39,000  Level Miami Center
Sun 10:42:57 AM 28.1272 -77.0117 North 415 478 39,000 -50 Level Miami Center
Sun 10:43:56 AM 28.2461 -77.0306 352° North 427 491 38,900  Descending Miami Center
Sun 10:44:56 AM 28.3839 -77.0472 354° North 426 490 39,000 50 Climbing Miami Center
Sun 10:45:56 AM 28.4944 -77.0617 353° North 427 491 39,000  Level Miami Center
Sun 10:46:56 AM 28.6156 -77.0783 353° North 419 482 39,000 -50 Level Miami Center
Sun 10:47:56 AM 28.7283 -77.0928 354° North 425 489 38,900 -50 Descending Miami Center
Sun 10:48:57 AM 28.8472 -77.1097 353° North 423 487 38,900  Level Miami Center
Sun 10:49:56 AM 28.9639 -77.1267 353° North 423 487 38,900 50 Level Miami Center
Sun 10:50:56 AM 29.0789 -77.1411 354° North 418 481 39,000  Climbing Miami Center
Sun 10:51:56 AM 29.1831 -77.1533 354° North 418 481 38,900 -50 Descending Miami Center
Sun 10:52:56 AM 29.3103 -77.1725 353° North 418 481 38,900 50 Level Miami Center
Sun 10:53:56 AM 29.4250 -77.1847 355° North 418 481 39,000 50 Climbing Miami Center
Sun 10:54:56 AM 29.5417 -77.2019 353° North 426 490 39,000 -42 Level Miami Center
Sun 10:56:18 AM 29.6789 -77.2136 356° North 416 479 38,900 -42 Descending Jacksonville Center
Sun 10:57:18 AM 29.7964 -77.2283 354° North 421 484 38,900  Level Jacksonville Center
Sun 10:58:18 AM 29.9183 -77.2475 352° North 429 494 38,900 50 Level Jacksonville Center
Sun 10:59:18 AM 30.0381 -77.2669 352° North 424 488 39,000 50 Climbing Jacksonville Center
Sun 11:00:18 AM 30.1533 -77.2794 355° North 430 495 39,000  Level Jacksonville Center
Sun 11:01:18 AM 30.2831 -77.2839 358° North 425 489 39,000  Level Jacksonville Center
Sun 11:02:18 AM 30.4022 -77.2889 358° North 449 517 39,000  Level Jacksonville Center
Sun 11:03:18 AM 30.5219 -77.3061 353° North 431 496 39,000  Level Jacksonville Center
Sun 11:04:18 AM 30.6400 -77.3328 349° North 431 496 39,000  Level Jacksonville Center
Sun 11:05:18 AM 30.7575 -77.3478 354° North 431 496 39,000  Level Jacksonville Center
Sun 11:06:18 AM 30.8733 -77.3725 350° North 414 476 39,000 -50 Level Jacksonville Center
Sun 11:07:18 AM 30.9869 -77.3925 351° North 415 478 38,900 -50 Descending Jacksonville Center
Sun 11:08:18 AM 31.1022 -77.4050 355° North 417 480 38,900 50 Level Jacksonville Center
Sun 11:09:18 AM 31.2156 -77.4203 353° North 404 465 39,000  Climbing Jacksonville Center
Sun 11:10:18 AM 31.3331 -77.4353 354° North 415 478 38,900 -50 Descending Jacksonville Center
Sun 11:11:18 AM 31.4467 -77.4553 351° North 415 478 38,900 50 Level Jacksonville Center
Sun 11:12:18 AM 31.5622 -77.4756 351° North 410 472 39,000 50 Climbing Jacksonville Center
Sun 11:13:18 AM 31.6775 -77.4883 355° North 413 475 39,000 -50 Level Jacksonville Center
Sun 11:14:18 AM 31.7931 -77.5011 355° North 421 484 38,900 -50 Descending Jacksonville Center
Sun 11:15:18 AM 31.9128 -77.5186 353° North 421 484 38,900 50 Level Jacksonville Center
Sun 11:16:18 AM 32.0303 -77.5386 352° North 421 484 39,000 50 Climbing Jacksonville Center
Sun 11:17:18 AM 32.1458 -77.5564 353° North 421 484 39,000  Level Jacksonville Center
Sun 11:18:18 AM 32.2636 -77.5742 353° North 426 490 39,000  Level Jacksonville Center
Sun 11:19:18 AM 32.3808 -77.5869 355° North 426 490 39,000 -50 Level Jacksonville Center
Sun 11:20:18 AM 32.4964 -77.6047 353° North 426 490 38,900 -50 Descending Jacksonville Center
Sun 11:21:18 AM 32.6139 -77.6175 355° North 426 490 38,900  Level Jacksonville Center
Sun 11:22:18 AM 32.7317 -77.6403 351° North 426 490 38,900 50 Level Jacksonville Center
Sun 11:23:18 AM 32.8492 -77.6533 355° North 426 490 39,000 50 Climbing Jacksonville Center
Sun 11:24:18 AM 32.9647 -77.6739 352° North 426 490 39,000 -50 Level Jacksonville Center
Sun 11:25:18 AM 33.0800 -77.6869 355° North 426 490 38,900 -50 Descending Jacksonville Center
Sun 11:26:18 AM 33.1936 -77.7050 352° North 420 483 38,900  Level Jacksonville Center
Sun 11:28:22 AM 33.4142 -77.7361 353° North 405 466 38,900 32 Level Washington Center
Sun 11:29:23 AM 33.5286 -77.7539 353° North 405 466 39,000 50 Climbing Washington Center
Sun 11:30:23 AM 33.6389 -77.7692 353° North 405 466 39,000 -50 Level Washington Center
Sun 11:31:24 AM 33.7511 -77.7847 353° North 405 466 38,900  Descending Washington Center
Sun 11:32:22 AM 33.8656 -77.8003 354° North 410 472 39,000 51 Climbing Washington Center
Sun 11:33:22 AM 33.9800 -77.8208 352° North 410 472 39,000  Level Washington Center
Sun 11:34:24 AM 34.0903 -77.8314 355° North 405 466 39,000  Level Washington Center
Sun 11:35:21 AM 34.2072 -77.8369 358° North 405 466 39,000 -51 Level Washington Center
Sun 11:36:22 AM 34.3342 -77.8506 355° North 410 472 38,900 -49 Descending Washington Center
Sun 11:37:23 AM 34.4486 -77.8611 356° North 410 472 38,900 49 Level Washington Center
Sun 11:38:24 AM 34.5633 -77.8719 356° North 410 472 39,000 15 Climbing Washington Center
Sun 11:43:53 AM 35.1984 -77.9213 356° North 409 471 39,000  Level FlightAware ADS-B
Sun 11:46:26 AM 35.4872 -77.9453 356° North 416 479 39,000  Level FlightAware ADS-B
Sun 11:47:10 AM 35.5735 -77.9529 355° North 417 480 39,000  Level FlightAware ADS-B
Sun 11:47:51 AM 35.6511 -77.9596 355° North 418 481 39,000  Level FlightAware ADS-B
Sun 11:48:27 AM 35.7093 -77.9645 356° North 418 481 39,000  Level FlightAware ADS-B
Sun 11:49:27 AM 35.8311 -77.9748 356° North 418 481 39,000  Level FlightAware ADS-B
Sun 11:50:07 AM 35.8925 -77.9802 356° North 418 481 39,000  Level FlightAware ADS-B
Sun 11:51:24 AM 36.0589 -77.9969 356° North 410 472 39,000  Level Washington Center
Sun 11:52:24 AM 36.1736 -78.0056 357° North 410 472 39,000  Level Washington Center
Sun 11:53:22 AM 36.2881 -78.0169 355° North 410 472 39,000  Level Washington Center
Sun 11:54:23 AM 36.4089 -78.0258 357° North 415 478 39,000  Level Washington Center
Sun 11:55:23 AM 36.5192 -78.0369 355° North 410 472 39,000  Level Washington Center
Sun 11:56:21 AM 36.6381 -78.0458 357° North 410 472 39,000  Level Washington Center
Sun 11:57:22 AM 36.7547 -78.0547 357° North 415 478 39,000  Level Washington Center
Sun 11:58:24 AM 36.8669 -78.0661 355° North 415 478 39,000  Level Washington Center
Sun 11:59:24 AM 36.9836 -78.0775 356° North 415 478 39,000  Level Washington Center
Sun 12:00:22 PM 37.1003 -78.0867 356° North 415 478 39,000  Level Washington Center
Sun 12:01:23 PM 37.2169 -78.0981 356° North 415 478 39,000  Level Washington Center
Sun 12:02:24 PM 37.3314 -78.1072 356° North 415 478 39,000  Level Washington Center
Sun 12:03:22 PM 37.4500 -78.1164 356° North 420 483 39,000  Level Washington Center
Sun 12:04:23 PM 37.5667 -78.1253 357° North 420 483 39,000  Level Washington Center
Sun 12:05:24 PM 37.6811 -78.1372 355° North 420 483 39,000  Level Washington Center
Sun 12:06:24 PM 37.7978 -78.1489 355° North 420 483 39,000 -821 Level Washington Center
Sun 12:07:21 PM 37.9144 -78.1581 356° North 420 483 37,400 -1,017 Descending Washington Center
Sun 12:08:22 PM 38.0244 -78.1725 354° North 428 493 37,000 -198 Descending Washington Center
Sun 12:09:22 PM 38.1453 -78.1819 356° North 434 499 37,000  Level Washington Center
Sun 12:10:23 PM 38.2681 -78.1914 357° North 434 499 37,000  Level Washington Center
Sun 12:11:23 PM 38.3889 -78.2036 355° North 439 505 37,000  Level Washington Center
Sun 12:12:24 PM 38.5219 -78.2136 357° North 439 505 37,000  Level Washington Center
Sun 12:13:24 PM 38.6447 -78.2286 355° North 439 505 37,000  Level Washington Center
Sun 12:14:22 PM 38.7675 -78.2383 356° North 439 505 37,000  Level Washington Center
Sun 12:15:22 PM 38.8925 -78.2481 357° North 439 505 37,000  Level Washington Center
Sun 12:19:37 PM 39.4239 -78.2974 356° North 445 512 37,000  Level FlightAware ADS-B (LFML / MRS)
Sun 12:20:08 PM 39.4572 -78.3011 356° North 443 510 37,000  Level Cleveland Center
Sun 12:21:09 PM 39.6058 -78.3161 356° North 443 510 37,000  Level Cleveland Center
Sun 12:22:11 PM 39.7300 -78.3275 356° North 444 511 37,000  Level Cleveland Center
Sun 12:23:13 PM 39.8614 -78.3394 356° North 449 517 37,000 48 Level Cleveland Center
Sun 12:24:15 PM 39.9844 -78.3503 356° North 449 517 37,100 -145 Climbing Cleveland Center
Sun 12:25:17 PM 40.1075 -78.3622 356° North 449 517 36,700 -629 Descending Cleveland Center
Sun 12:26:19 PM 40.2306 -78.3764 355° North 447 514 35,800 -823 Descending Cleveland Center
Sun 12:27:21 PM 40.3594 -78.3867 357° North 463 533 35,000 -387 Descending Cleveland Center
Sun 12:28:23 PM 40.5131 -78.4017 356° North 463 533 35,000  Level Cleveland Center
Sun 12:29:25 PM 40.6408 -78.4142 356° North 463 533 35,000  Level Cleveland Center
Sun 12:30:27 PM 40.7708 -78.4264 356° North 465 535 35,000 -327 Level Cleveland Center
Sun 12:36:09 PM 41.5027 -78.4996 356° North 431 496 32,800 -544 Descending FlightAware ADS-B (CYYZ)
Sun 12:37:04 PM 41.5966 -78.5098 356° North 439 505 31,400 -1,271 Descending FlightAware ADS-B (CYYZ)
Sun 12:37:34 PM 41.6669 -78.5164 356° North 440 506 31,000 -338 Descending FlightAware ADS-B (CYYZ)
Sun 12:38:15 PM 41.7577 -78.5251 356° North 438 504 31,000  Level FlightAware ADS-B (CYYZ)
Sun 12:38:45 PM 41.8184 -78.5313 356° North 437 503 31,000  Level FlightAware ADS-B (CYYZ)
Sun 12:39:14 PM 41.8614 -78.5358 356° North 437 503 31,000  Level FlightAware ADS-B (CYYZ)
Sun 12:39:44 PM 41.9369 -78.5436 356° North 439 505 31,000  Level FlightAware ADS-B (CYYZ)
Sun 12:40:14 PM 41.9925 -78.5492 356° North 440 506 31,000  Level FlightAware ADS-B (CYYZ)
Sun 12:40:45 PM 42.0591 -78.5559 356° North 441 507 31,000  Level FlightAware ADS-B (CYYZ)
Sun 12:41:14 PM 42.1184 -78.5621 356° North 442 509 31,000 -407 Level FlightAware ADS-B (CYYZ)
Sun 12:41:44 PM 42.1779 -78.5681 356° North 443 510 30,600 -900 Descending FlightAware ADS-B (CYYZ)
Sun 12:42:14 PM 42.2352 -78.5741 356° North 440 506 30,100 -600 Descending FlightAware ADS-B (CYYZ)
Sun 12:42:44 PM 42.3015 -78.5807 356° North 435 501 30,000 -100 Descending FlightAware ADS-B (CYYZ)
Sun 12:43:14 PM 42.3621 -78.5869 356° North 430 495 30,000  Level FlightAware ADS-B (CYYZ)
Sun 12:43:44 PM 42.4217 -78.5931 356° North 432 497 30,000  Level FlightAware ADS-B (CYYZ)
Sun 12:44:14 PM 42.4815 -78.5993 356° North 432 497 30,000  Level FlightAware ADS-B (CYYZ)
Sun 12:44:45 PM 42.5391 -78.6053 356° North 431 496 30,000  Level FlightAware ADS-B (CYYZ)
Sun 12:45:15 PM 42.5999 -78.6115 356° North 432 497 30,000 -305 Level FlightAware ADS-B (CYYZ)
Sun 12:45:44 PM 42.6554 -78.6172 356° North 427 491 29,700 -750 Descending FlightAware ADS-B (CYYZ)
Sun 12:45:47 PM 42.6357 -78.6152 356° North 427 491 29,600 -1,600 Descending FlightAware ADS-B
Sun 12:46:14 PM 42.7189 -78.6238 356° North 420 483 28,900 -1,368 Descending FlightAware ADS-B (CYYZ)
Sun 12:46:44 PM 42.7718 -78.6293 356° North 407 468 28,300 -1,149 Descending FlightAware ADS-B (CYYZ)
Sun 12:47:01 PM 42.7983 -78.6320 356° North 405 466 28,000 -514 Descending FlightAware ADS-B
Sun 12:47:19 PM 42.8413 -78.6367 356° North 408 470 28,000 -375 Level FlightAware ADS-B (CYYZ)
Sun 12:47:49 PM 42.8983 -78.6454 347° North 395 455 27,700 -600 Descending FlightAware ADS-B (CYYZ)
Sun 12:47:59 PM 42.9144 -78.6532 337° Northwest 375 432 27,600 -400 Descending FlightAware ADS-B (CYYZ)
Sun 12:48:19 PM 42.9411 -78.6762 321° Northwest 344 396 27,500 -450 Descending FlightAware ADS-B (CYYZ)
Sun 12:48:39 PM 42.9621 -78.7082 306° West 321 369 27,300 -913 Descending FlightAware ADS-B (CYYZ)
Sun 12:49:05 PM 42.9835 -78.7492 306° West 318 366 26,800 -968 Descending FlightAware ADS-B
Sun 12:49:10 PM 42.9882 -78.7579 307° West 318 366 26,800 -1,059 Level FlightAware ADS-B (CYYZ)
Sun 12:49:39 PM 43.0132 -78.8040 307° West 315 362 26,200 -1,077 Descending FlightAware ADS-B (CYYZ)
Sun 12:49:49 PM 43.0181 -78.8132 306° West 314 361 26,100 -1,355 Descending FlightAware ADS-B
Sun 12:50:10 PM 43.0396 -78.8536 306° West 314 361 25,500 -2,000 Descending FlightAware ADS-B (CYYZ)
Sun 12:50:28 PM 43.0525 -78.8780 306° West 307 353 24,800 -2,483 Descending FlightAware ADS-B
Sun 12:50:39 PM 43.0645 -78.9002 307° West 308 354 24,300 -2,634 Descending FlightAware ADS-B (CYYZ)
Sun 12:51:09 PM 43.0887 -78.9452 306° West 301 346 23,000 -2,516 Descending FlightAware ADS-B
Sun 12:51:10 PM 43.0886 -78.9452 306° West 301 346 23,000 -2,400 Level FlightAware ADS-B (CYYZ)
Sun 12:51:39 PM 43.1132 -78.9921 306° West 298 343 21,800 -2,368 Descending FlightAware ADS-B (CYYZ)
Sun 12:51:48 PM 43.1201 -79.0052 306° West 298 343 21,500 -2,323 Descending FlightAware ADS-B
Sun 12:52:10 PM 43.1372 -79.0378 306° West 298 343 20,600 -2,615 Descending FlightAware ADS-B (CYYZ)
Sun 12:52:27 PM 43.1501 -79.0623 306° West 296 341 19,800 -2,276 Descending FlightAware ADS-B
Sun 12:52:39 PM 43.1617 -79.0838 307° West 296 341 19,500 -1,857 Descending FlightAware ADS-B (CYYZ)
Sun 12:53:09 PM 43.1848 -79.1278 305° West 293 337 18,500 -2,262 Descending FlightAware ADS-B
Sun 12:53:40 PM 43.2090 -79.1741 306° West 293 337 17,200 -2,550 Descending FlightAware ADS-B (CYYZ)
Sun 12:53:49 PM 43.2161 -79.1877 306° West 294 338 16,800 -2,690 Descending FlightAware ADS-B
Sun 12:54:09 PM 43.2327 -79.2194 306° West 293 337 15,900 -2,308 Descending FlightAware ADS-B (CYYZ)
Sun 12:54:28 PM 43.2437 -79.2404 306° West 288 331 15,300 -2,000 Descending FlightAware ADS-B
Sun 12:54:39 PM 43.2560 -79.2637 306° West 287 330 14,900 -1,429 Descending FlightAware ADS-B (CYYZ)
Sun 12:55:10 PM 43.2786 -79.3076 307° West 263 303 14,300 -1,200 Descending FlightAware ADS-B (CYYZ)
Sun 12:55:39 PM 43.2980 -79.3436 310° West 239 275 13,700 -1,135 Descending FlightAware ADS-B (CYYZ)
Sun 12:55:47 PM 43.3040 -79.3516 322° Northwest 242 278 13,600 -600 Descending FlightAware ADS-B
Sun 12:55:49 PM 43.3064 -79.3540 326° Northwest 246 283 13,600 -1,000 Level FlightAware ADS-B (CYYZ)
Sun 12:55:59 PM 43.3174 -79.3608 341° North 257 296 13,400 -1,059 Descending FlightAware ADS-B (CYYZ)
Sun 12:56:06 PM 43.3255 -79.3643 342° North 257 296 13,300 -1,400 Descending FlightAware ADS-B
Sun 12:56:29 PM 43.3516 -79.3758 342° North 255 293 12,700 -1,650 Descending FlightAware ADS-B (CYYZ)
Sun 12:56:46 PM 43.3701 -79.3840 342° North 252 290 12,200 -1,800 Descending FlightAware ADS-B
Sun 12:56:59 PM 43.3848 -79.3903 343° North 251 289 11,800 -1,674 Descending FlightAware ADS-B (CYYZ)
Sun 12:57:29 PM 43.4168 -79.4034 343° North 248 285 11,000 -1,672 Descending FlightAware ADS-B
Sun 12:58:00 PM 43.4506 -79.4176 343° North 247 284 10,100 -2,182 Descending FlightAware ADS-B (CYYZ)
Sun 12:58:02 PM 43.4449 -79.4153 343° North 246 283 9,800 -2,000 Descending FlightAware ADS-B
Sun 12:58:15 PM 43.4672 -79.4248 343° North 246 283 9,600 -1,500 Descending FlightAware ADS-B (CYYZ)
Sun 12:58:26 PM 43.4789 -79.4299 342° North 247 284 9,200 -2,400 Descending FlightAware ADS-B
Sun 12:58:30 PM 43.4835 -79.4319 343° North 250 288 9,000 -1,895 Descending FlightAware ADS-B (CYYZ)
Sun 12:58:45 PM 43.4998 -79.4389 343° North 250 288 8,600 -1,800 Descending FlightAware ADS-B (CYYZ)
Sun 12:59:00 PM 43.5158 -79.4457 343° North 248 285 8,100 -1,800 Descending FlightAware ADS-B (CYYZ)
Sun 12:59:05 PM 43.5212 -79.4485 337° Northwest 248 285 8,000 -1,800 Descending FlightAware ADS-B (CYYZ)
Sun 12:59:10 PM 43.5265 -79.4529 327° Northwest 247 284 7,800 -2,000 Descending FlightAware ADS-B (CYYZ)
Sun 12:59:14 PM 43.5304 -79.4574 318° Northwest 246 283 7,700 -480 Descending FlightAware ADS-B (CYYZ)
Sun 12:59:35 PM 43.5468 -79.4792 317° Northwest 231 266 7,600 -293 Descending FlightAware ADS-B (CYYZ)
Sun 12:59:55 PM 43.5613 -79.4979 318° Northwest 215 247 7,500 -545 Descending FlightAware ADS-B (CYYZ)
Sun 01:00:08 PM 43.5696 -79.5083 317° Northwest 211 243 7,300 -857 Descending FlightAware ADS-B
Sun 01:00:09 PM 43.5723 -79.5117 318° Northwest 212 244 7,300 -1,412 Level FlightAware ADS-B (CYYZ)
Sun 01:00:25 PM 43.5827 -79.5261 309° West 213 245 6,900 -1,765 Descending FlightAware ADS-B (CYYZ)
Sun 01:00:26 PM 43.5726 -79.5121 299° West 215 247 6,800 -2,400 Descending FlightAware ADS-B
Sun 01:00:30 PM 43.5852 -79.5321 297° West 216 249 6,700 -1,500 Descending FlightAware ADS-B (CYYZ)
Sun 01:00:34 PM 43.5866 -79.5386 285° West 219 252 6,600 -1,800 Descending FlightAware ADS-B (CYYZ)
Sun 01:00:40 PM 43.5871 -79.5456 273° West 222 255 6,400 -1,636 Descending FlightAware ADS-B (CYYZ)
Sun 01:00:45 PM 43.5864 -79.5530 261° West 225 259 6,300 -2,000 Descending FlightAware ADS-B (CYYZ)
Sun 01:00:49 PM 43.5848 -79.5596 250° West 228 262 6,100 -1,800 Descending FlightAware ADS-B (CYYZ)
Sun 01:00:55 PM 43.5825 -79.5658 241° Southwest 229 264 6,000 -1,636 Descending FlightAware ADS-B (CYYZ)
Sun 01:01:00 PM 43.5790 -79.5723 231° Southwest 231 266 5,800 -2,667 Descending FlightAware ADS-B (CYYZ)
Sun 01:01:04 PM 43.5755 -79.5770 224° Southwest 235 270 5,600 -1,800 Descending FlightAware ADS-B (CYYZ)
Sun 01:01:20 PM 43.5633 -79.5928 225° Southwest 238 274 5,200 -1,200 Descending FlightAware ADS-B (CYYZ)
Sun 01:01:34 PM 43.5521 -79.6084 227° Southwest 232 267 5,000 -960 Descending FlightAware ADS-B (CYYZ)
Sun 01:01:45 PM 43.5448 -79.6192 227° Southwest 226 260 4,800 -800 Descending FlightAware ADS-B (CYKF)
Sun 01:01:49 PM 43.5419 -79.6235 228° Southwest 222 255 4,800 -600 Level FlightAware ADS-B (CYYZ)
Sun 01:02:05 PM 43.5310 -79.6396 228° Southwest 214 246 4,600 -774 Descending FlightAware ADS-B (CYYZ)
Sun 01:02:20 PM 43.5214 -79.6543 232° Southwest 206 237 4,400 -632 Descending FlightAware ADS-B (CYYZ)
Sun 01:02:24 PM 43.5191 -79.6595 241° Southwest 201 231 4,400 -750 Level FlightAware ADS-B (CYYZ)
Sun 01:02:28 PM 43.5201 -79.6568 244° Southwest 197 227 4,300 -1,200 Descending FlightAware ADS-B
Sun 01:02:29 PM 43.5172 -79.6653 248° West 195 224 4,300 -1,000 Level FlightAware ADS-B (CYYZ)
Sun 01:02:34 PM 43.5160 -79.6706 253° West 190 219 4,200 -1,263 Descending FlightAware ADS-B (CYYZ)
Sun 01:02:48 PM 43.5130 -79.6847 254° West 186 214 3,900 -1,200 Descending FlightAware ADS-B
Sun 01:02:49 PM 43.5124 -79.6875 254° West 187 215 3,900 -1,412 Level FlightAware ADS-B (CYYZ)
Sun 01:03:05 PM 43.5087 -79.7055 254° West 190 219 3,500 -1,200 Descending FlightAware ADS-B (CYYZ)
Sun 01:03:09 PM 43.5076 -79.7103 254° West 188 216 3,500 -800 Level FlightAware ADS-B
Sun 01:03:20 PM 43.5054 -79.7223 257° West 182 209 3,300 -1,000 Descending FlightAware ADS-B (CYYZ)
Sun 01:03:27 PM 43.5043 -79.7300 268° West 172 198 3,200 -600 Descending FlightAware ADS-B
Sun 01:03:30 PM 43.5042 -79.7336 268° West 173 199 3,200 -750 Level FlightAware ADS-B (CYYZ)
Sun 01:03:35 PM 43.5048 -79.7389 282° West 167 192 3,100 -1,333 Descending FlightAware ADS-B (CYYZ)
Sun 01:03:39 PM 43.5061 -79.7432 297° West 160 184 3,000 -600 Descending FlightAware ADS-B (CYYZ)
Sun 01:03:45 PM 43.5084 -79.7475 311° West 155 178 3,000 -857 Level FlightAware ADS-B (CYYZ)
Sun 01:04:00 PM 43.5160 -79.7577 318° Northwest 159 183 2,700 -1,200 Descending FlightAware ADS-B (CYYZ)
Sun 01:04:05 PM 43.5190 -79.7607 326° Northwest 159 183 2,600 -667 Descending FlightAware ADS-B (CYYZ)
Sun 01:04:09 PM 43.5220 -79.7627 340° North 161 185 2,600  Level FlightAware ADS-B (CYYZ)
Sun 01:04:15 PM 43.5259 -79.7635 355° North 158 182 2,600  Level FlightAware ADS-B (CYYZ)
Sun 01:04:19 PM 43.5291 -79.7633 North 159 183 2,600  Level FlightAware ADS-B (CYYZ)
Sun 01:04:28 PM 43.5281 -79.7634 11° North 159 183 2,600  Level FlightAware ADS-B
Sun 01:04:35 PM 43.5403 -79.7607 11° North 161 185 2,600 -286 Level FlightAware ADS-B (CYYZ)
Sun 01:04:49 PM 43.5434 -79.7598 11° North 162 186 2,500 -316 Descending FlightAware ADS-B
Sun 01:04:54 PM 43.5547 -79.7569 11° North 161 185 2,500  Level FlightAware ADS-B (CYYZ)
Sun 01:05:04 PM 43.5617 -79.7551 12° North 158 182 2,500  Level FlightAware ADS-B
Sun 01:05:09 PM 43.5657 -79.7537 16° North 161 185 2,500  Level FlightAware ADS-B (CYYZ)
Sun 01:05:15 PM 43.5690 -79.7516 26° Northeast 161 185 2,500  Level FlightAware ADS-B (CYYZ)
Sun 01:05:19 PM 43.5723 -79.7488 34° Northeast 163 188 2,500  Level FlightAware ADS-B (CYYZ)
Sun 01:05:24 PM 43.5754 -79.7454 40° Northeast 164 189 2,500  Level FlightAware ADS-B (CYYZ)
Sun 01:05:28 PM 43.5753 -79.7454 41° Northeast 163 188 2,500  Level FlightAware ADS-B
Sun 01:05:39 PM 43.5833 -79.7351 44° Northeast 165 190 2,500 -286 Level FlightAware ADS-B (CYYZ)
Sun 01:05:49 PM 43.5886 -79.7280 44° Northeast 165 190 2,400 -750 Descending FlightAware ADS-B
Sun 01:05:55 PM 43.5915 -79.7240 45° Northeast 164 189 2,300 -1,333 Descending FlightAware ADS-B (CYYZ)
Sun 01:06:07 PM 43.5971 -79.7160 46° Northeast 161 185 2,000 -1,200 Descending FlightAware ADS-B
Sun 01:06:10 PM 43.5996 -79.7125 46° Northeast 162 186 2,000 -706 Level FlightAware ADS-B (CYYZ)
Sun 01:06:24 PM 43.6073 -79.7013 46° Northeast 164 189 1,800 -1,059 Descending FlightAware ADS-B (CYYZ)
Sun 01:06:27 PM 43.6086 -79.6995 47° Northeast 163 188 1,700 -800 Descending FlightAware ADS-B
Sun 01:06:39 PM 43.6146 -79.6909 46° Northeast 159 183 1,600 -857 Descending FlightAware ADS-B (CYYZ)
Sun 01:06:48 PM 43.6158 -79.6891 47° Northeast 155 178 1,400 -1,200 Descending FlightAware ADS-B
Sun 01:06:54 PM 43.6222 -79.6796 47° Northeast 153 176 1,300 -900 Descending FlightAware ADS-B (CYYZ)
Sun 01:07:08 PM 43.6287 -79.6703 46° Northeast 141 162 1,100 -750 Descending FlightAware ADS-B
Sun 01:07:10 PM 43.6294 -79.6693 46° Northeast 140 161 1,100 -706 Level FlightAware ADS-B (CYYZ)
Sun 01:07:25 PM 43.6357 -79.6601 45° Northeast 133 153 900 -800 Descending FlightAware ADS-B (CYYZ)
Sun 01:07:40 PM 43.6418 -79.6513 46° Northeast 125 144 700 -800 Descending FlightAware ADS-B (CYYZ)
Sun 01:07:55 PM 43.6475 -79.6432 46° Northeast 127 146 500 -621 Descending FlightAware ADS-B (CYYZ)
Sun 01:08:09 PM 43.6525 -79.6358 45° Northeast 122 140 400 -429 Descending FlightAware ADS-B (CYYZ)

Login

Don't have an account? Register now (free) for customized features, flight alerts, and more!